Time;durP1;ratioP1;P1;durP2;ratioP2;P2;SDS_P1;SDS_P2;PMS_P1;PMS_P2;Temp;Humidity;BMP_temperature;BMP_pressure;BME280_temperature;BME280_humidity;BME280_pressure;Samples;Min_cycle;Max_cycle;Signal;HPM_P1;HPM_P2
2022/12/11 00:01:47;;;;;;;5.90;3.00;;;1.30;98.00;;;;;;5014184;28;20469;-64
2022/12/11 00:04:14;;;;;;;4.50;3.40;;;1.30;98.00;;;;;;5014333;28;20465;-64
2022/12/11 00:06:41;;;;;;;8.30;3.77;;;1.20;98.00;;;;;;5013864;28;20492;-64
2022/12/11 00:09:09;;;;;;;4.23;2.80;;;1.20;98.00;;;;;;5014132;28;20521;-64
2022/12/11 00:11:36;;;;;;;6.00;2.80;;;1.20;98.00;;;;;;5013968;28;20470;-64
2022/12/11 00:14:03;;;;;;;6.80;3.63;;;1.00;98.00;;;;;;5014070;28;20458;-64
2022/12/11 00:16:36;;;;;;;3.77;2.73;;;1.00;98.00;;;;;;5013611;28;20451;-64
2022/12/11 00:19:05;;;;;;;8.03;3.50;;;1.10;98.00;;;;;;5014206;28;20458;-64
2022/12/11 00:21:32;;;;;;;4.00;2.93;;;0.90;98.00;;;;;;5014193;28;20459;-64
2022/12/11 00:24:00;;;;;;;6.13;3.20;;;1.00;98.00;;;;;;5014193;28;20475;-64
2022/12/11 00:26:27;;;;;;;5.93;2.80;;;0.90;98.00;;;;;;5013568;28;20508;-63
2022/12/11 00:28:56;;;;;;;3.80;2.87;;;1.00;98.00;;;;;;5012623;28;20461;-64
2022/12/11 00:31:24;;;;;;;3.30;2.50;;;1.00;98.00;;;;;;5013518;28;20451;-63
2022/12/11 00:33:51;;;;;;;2.10;1.97;;;1.00;98.00;;;;;;5013600;28;20470;-64
2022/12/11 00:36:21;;;;;;;3.20;2.40;;;1.00;98.00;;;;;;5028816;28;20888;-64
2022/12/11 00:38:49;;;;;;;2.17;2.00;;;0.90;98.00;;;;;;5013462;28;20956;-64
2022/12/11 00:41:16;;;;;;;6.07;2.87;;;0.80;98.00;;;;;;5013344;28;20481;-64
2022/12/11 00:43:44;;;;;;;5.78;3.95;;;0.80;98.00;;;;;;5013366;28;20940;-63
2022/12/11 00:46:11;;;;;;;3.10;1.97;;;0.80;98.00;;;;;;5013419;28;20204;-63
2022/12/11 00:48:39;;;;;;;5.83;2.53;;;0.70;98.00;;;;;;5013281;28;20486;-64
2022/12/11 00:51:07;;;;;;;2.50;2.23;;;0.60;98.00;;;;;;5013405;28;20544;-64
2022/12/11 00:53:36;;;;;;;1.97;1.80;;;0.60;98.00;;;;;;5013182;28;20834;-63
2022/12/11 00:56:10;;;;;;;4.00;2.60;;;0.70;98.00;;;;;;5013167;28;20474;-64
2022/12/11 00:58:37;;;;;;;2.57;2.07;;;0.80;98.00;;;;;;5028509;28;20457;-63
2022/12/11 01:01:08;;;;;;;3.10;2.53;;;0.70;98.00;;;;;;5013083;28;20957;-64
2022/12/11 01:03:36;;;;;;;7.10;2.30;;;0.70;98.00;;;;;;5013139;28;20474;-64
2022/12/11 01:06:03;;;;;;;3.00;2.37;;;0.70;98.00;;;;;;5012878;28;20478;-64
2022/12/11 01:08:30;;;;;;;2.70;2.40;;;0.90;98.00;;;;;;5028042;28;20514;-63
2022/12/11 01:11:07;;;;;;;2.47;2.30;;;1.00;98.00;;;;;;5013182;28;20479;-63
2022/12/11 01:13:34;;;;;;;2.30;1.93;;;0.90;98.00;;;;;;5013125;28;20458;-64
2022/12/11 01:16:07;;;;;;;4.37;3.03;;;0.80;98.00;;;;;;5012848;28;20470;-64
2022/12/11 01:18:34;;;;;;;4.73;2.90;;;0.80;98.00;;;;;;5012889;28;20975;-64
2022/12/11 01:21:06;;;;;;;1.77;1.67;;;0.80;98.00;;;;;;5012563;28;20941;-63
2022/12/11 01:23:33;;;;;;;2.03;1.80;;;0.80;98.00;;;;;;5012798;28;20459;-64
2022/12/11 01:26:07;;;;;;;2.80;2.70;;;0.90;98.00;;;;;;5012596;28;20454;-64
2022/12/11 01:28:34;;;;;;;1.83;1.73;;;0.90;98.00;;;;;;5012521;28;20497;-64
2022/12/11 01:31:01;;;;;;;4.50;3.23;;;1.00;98.00;;;;;;5012558;28;20463;-63
2022/12/11 01:33:29;;;;;;;4.10;2.13;;;0.90;98.00;;;;;;5012615;28;20470;-64
2022/12/11 01:35:56;;;;;;;6.77;2.10;;;0.90;98.00;;;;;;5012441;28;20453;-64
2022/12/11 01:38:23;;;;;;;2.33;2.20;;;0.90;98.00;;;;;;5012492;28;20788;-64
2022/12/11 01:40:51;;;;;;;2.27;2.07;;;0.90;98.00;;;;;;5027250;28;20459;-64
2022/12/11 01:43:20;;;;;;;5.17;3.37;;;1.00;98.00;;;;;;5012311;28;20466;-64
2022/12/11 01:45:48;;;;;;;1.97;1.87;;;1.10;98.00;;;;;;5012536;28;20463;-64
2022/12/11 01:48:19;;;;;;;5.50;2.47;;;1.10;98.00;;;;;;5012319;28;20484;-63
2022/12/11 01:50:50;;;;;;;3.00;2.13;;;1.20;98.00;;;;;;5012464;28;20462;-63
2022/12/11 01:53:21;;;;;;;2.07;1.60;;;1.20;98.00;;;;;;5012496;28;20485;-63
2022/12/11 01:55:51;;;;;;;1.83;1.43;;;1.20;98.00;;;;;;5012319;28;20468;-64
2022/12/11 01:58:22;;;;;;;1.67;1.37;;;1.00;98.00;;;;;;5012505;28;20470;-63
2022/12/11 02:00:49;;;;;;;1.70;1.60;;;1.00;98.00;;;;;;5012306;28;20470;-63
2022/12/11 02:03:16;;;;;;;4.23;2.40;;;1.00;98.00;;;;;;5012447;28;20476;-64
2022/12/11 02:05:43;;;;;;;2.00;1.60;;;1.00;98.00;;;;;;5012183;28;20465;-64
2022/12/11 02:08:11;;;;;;;4.73;2.37;;;1.00;98.00;;;;;;5012389;28;20491;-63
2022/12/11 02:10:54;;;;;;;3.93;2.00;;;1.00;98.00;;;;;;5012210;28;20803;-64
2022/12/11 02:13:31;;;;;;;2.80;1.93;;;1.00;98.00;;;;;;5012047;28;20465;-63
2022/12/11 02:16:06;;;;;;;2.37;1.70;;;0.90;98.00;;;;;;5012090;28;20469;-63
2022/12/11 02:18:42;;;;;;;1.70;1.50;;;0.90;98.00;;;;;;5026559;28;20469;-63
2022/12/11 02:21:17;;;;;;;3.27;2.30;;;1.00;98.00;;;;;;5011958;28;20465;-63
2022/12/11 02:23:59;;;;;;;6.30;1.70;;;1.00;98.00;;;;;;5011943;28;20523;-64
2022/12/11 02:26:47;;;;;;;2.23;1.93;;;1.10;98.00;;;;;;5011910;28;20466;-64
2022/12/11 02:29:21;;;;;;;2.23;1.53;;;1.10;98.00;;;;;;5011776;28;20548;-63
2022/12/11 02:31:53;;;;;;;3.00;1.93;;;1.20;98.00;;;;;;5011819;28;20510;-64
2022/12/11 02:34:27;;;;;;;1.60;1.50;;;1.20;98.00;;;;;;5011836;28;20462;-64
2022/12/11 02:36:59;;;;;;;2.00;1.60;;;1.10;98.00;;;;;;5011942;28;20462;-64
2022/12/11 02:39:27;;;;;;;2.03;1.90;;;1.20;98.00;;;;;;5011968;28;20458;-63
2022/12/11 02:41:56;;;;;;;2.27;1.83;;;1.30;98.00;;;;;;5011820;28;20462;-64
2022/12/11 02:44:28;;;;;;;2.17;1.90;;;1.30;98.00;;;;;;5011920;28;20538;-64
2022/12/11 02:46:55;;;;;;;2.77;2.40;;;1.30;98.00;;;;;;5011767;28;20950;-64
2022/12/11 02:49:24;;;;;;;2.20;1.80;;;1.30;98.00;;;;;;5011988;28;20491;-64
2022/12/11 02:51:54;;;;;;;2.23;1.43;;;1.40;98.00;;;;;;5012945;28;20459;-63
2022/12/11 02:54:26;;;;;;;3.97;2.30;;;1.40;98.00;;;;;;5015687;28;20459;-64
2022/12/11 02:57:01;;;;;;;3.40;1.90;;;1.40;98.00;;;;;;5015665;28;20467;-64
2022/12/11 02:59:35;;;;;;;1.50;1.40;;;1.40;98.00;;;;;;5015656;28;20473;-64
2022/12/11 03:02:02;;;;;;;3.30;1.70;;;1.30;98.00;;;;;;5015825;28;20474;-64
2022/12/11 03:04:30;;;;;;;3.63;1.63;;;1.30;98.00;;;;;;5015236;28;20455;-63
2022/12/11 03:07:10;;;;;;;2.63;2.13;;;1.40;98.00;;;;;;5015095;28;20462;-64
2022/12/11 03:09:38;;;;;;;2.50;1.90;;;1.30;98.00;;;;;;5029065;28;20489;-64
2022/12/11 03:15:00;;;;;;;1.70;1.60;;;1.20;98.00;;;;;;5013629;28;20482;-64
2022/12/11 03:17:32;;;;;;;2.53;2.03;;;1.20;98.00;;;;;;5014894;28;20543;-64
2022/12/11 03:20:06;;;;;;;5.43;1.93;;;1.20;98.00;;;;;;5014984;28;20941;-64
2022/12/11 03:22:40;;;;;;;2.60;1.90;;;1.20;98.00;;;;;;5014877;28;20485;-63
2022/12/11 03:25:14;;;;;;;2.13;1.80;;;1.20;98.00;;;;;;5014978;28;20474;-63
2022/12/11 03:27:48;;;;;;;2.60;1.87;;;1.20;98.00;;;;;;5029916;28;20494;-64
2022/12/11 03:30:23;;;;;;;1.53;1.50;;;1.20;98.00;;;;;;5014925;28;20459;-64
2022/12/11 03:32:56;;;;;;;3.00;1.87;;;1.20;98.00;;;;;;5014682;28;20474;-64
2022/12/11 03:35:27;;;;;;;2.00;1.83;;;1.20;98.00;;;;;;5014793;28;20541;-63
2022/12/11 03:37:57;;;;;;;2.37;2.03;;;1.20;98.00;;;;;;5014703;28;20455;-63
2022/12/11 03:40:27;;;;;;;3.60;1.90;;;1.10;98.00;;;;;;5014729;28;20454;-64
2022/12/11 03:42:57;;;;;;;2.93;1.73;;;1.20;98.00;;;;;;5014738;28;20470;-64
2022/12/11 03:45:28;;;;;;;1.57;1.53;;;1.20;98.00;;;;;;5014702;28;20463;-64
2022/12/11 03:47:58;;;;;;;3.10;2.30;;;1.10;98.00;;;;;;5014551;28;20479;-63
2022/12/11 03:50:28;;;;;;;6.13;2.10;;;1.10;98.00;;;;;;5014691;28;20463;-63
2022/12/11 03:53:00;;;;;;;3.93;2.27;;;1.10;98.00;;;;;;5014662;28;20455;-63
2022/12/11 03:55:29;;;;;;;4.70;1.80;;;1.20;98.00;;;;;;5014779;28;20891;-64
2022/12/11 03:57:56;;;;;;;1.77;1.67;;;1.20;98.00;;;;;;5014581;28;20855;-63
2022/12/11 04:00:25;;;;;;;2.20;1.53;;;1.20;98.00;;;;;;5014252;28;20456;-63
2022/12/11 04:05:33;;;;;;;5.80;2.63;;;1.20;98.00;;;;;;5013050;28;20877;-64
2022/12/11 04:08:00;;;;;;;3.50;1.50;;;1.10;98.00;;;;;;5029181;28;20490;-64
2022/12/11 04:10:27;;;;;;;3.30;2.20;;;1.20;98.00;;;;;;5014058;28;20463;-63
2022/12/11 04:12:55;;;;;;;2.90;1.90;;;1.20;98.00;;;;;;5014007;28;20458;-64
2022/12/11 04:15:21;;;;;;;3.50;2.47;;;1.30;98.00;;;;;;5014041;28;20465;-63
2022/12/11 04:26:07;;;;;;;1.30;1.27;;;1.30;98.00;;;;;;5013848;28;20466;-63
2022/12/11 04:28:35;;;;;;;2.53;1.60;;;1.30;98.00;;;;;;5013642;28;20487;-64
2022/12/11 04:31:02;;;;;;;5.17;2.10;;;1.40;98.00;;;;;;5013682;28;20466;-64
2022/12/11 04:33:31;;;;;;;6.73;2.27;;;1.20;98.00;;;;;;5013634;28;20463;-64
2022/12/11 04:35:59;;;;;;;2.80;2.40;;;1.10;98.00;;;;;;5013746;28;20466;-64
2022/12/11 04:38:26;;;;;;;2.37;2.23;;;1.10;98.00;;;;;;5013776;28;20462;-63
2022/12/11 04:40:59;;;;;;;2.17;2.03;;;1.10;98.00;;;;;;5013560;28;20463;-64
2022/12/11 04:43:27;;;;;;;3.53;2.30;;;1.10;98.00;;;;;;5013635;28;20459;-64
2022/12/11 04:46:01;;;;;;;2.00;1.90;;;1.00;98.00;;;;;;5013008;28;20647;-64
2022/12/11 04:48:31;;;;;;;3.60;2.20;;;1.00;98.00;;;;;;5012868;28;20485;-64
2022/12/11 04:50:59;;;;;;;2.23;1.83;;;0.90;98.00;;;;;;5012925;28;20525;-63
2022/12/11 04:53:26;;;;;;;2.90;2.20;;;0.90;98.00;;;;;;5013366;28;20472;-64
2022/12/11 04:55:54;;;;;;;3.30;1.97;;;1.00;98.00;;;;;;5013222;28;20950;-64
2022/12/11 04:58:22;;;;;;;2.83;2.20;;;1.00;98.00;;;;;;5013298;28;20824;-63
2022/12/11 05:00:49;;;;;;;4.13;2.27;;;1.00;98.00;;;;;;5013204;28;20455;-63
2022/12/11 05:03:16;;;;;;;8.50;1.70;;;1.00;98.00;;;;;;5012972;28;20463;-63
2022/12/11 05:05:50;;;;;;;5.07;2.90;;;1.10;98.00;;;;;;5012889;28;20458;-64
2022/12/11 05:08:17;;;;;;;6.00;2.60;;;1.30;98.00;;;;;;5012991;28;20565;-64
2022/12/11 05:10:45;;;;;;;3.93;2.77;;;1.30;98.00;;;;;;5012992;28;20460;-64
2022/12/11 05:13:12;;;;;;;2.23;1.73;;;1.20;98.00;;;;;;5012977;28;20455;-63
2022/12/11 05:15:39;;;;;;;3.40;2.17;;;1.20;98.00;;;;;;5012264;28;20953;-64
2022/12/11 05:18:06;;;;;;;3.10;1.87;;;1.10;98.00;;;;;;5012938;28;20548;-63
2022/12/11 05:20:34;;;;;;;3.63;2.60;;;1.30;98.00;;;;;;5028027;28;21032;-63
2022/12/11 05:23:03;;;;;;;4.93;3.17;;;1.30;98.00;;;;;;5012757;28;20480;-63
2022/12/11 05:25:30;;;;;;;2.33;1.87;;;1.40;98.00;;;;;;5012749;28;20467;-64
2022/12/11 05:27:58;;;;;;;2.47;2.27;;;1.40;98.00;;;;;;5012613;28;20508;-63
2022/12/11 05:30:25;;;;;;;2.27;2.10;;;1.20;98.00;;;;;;5012685;28;20458;-63
2022/12/11 05:32:52;;;;;;;5.60;2.47;;;1.20;98.00;;;;;;5012560;28;20535;-64
2022/12/11 05:35:19;;;;;;;5.77;2.40;;;1.20;98.00;;;;;;5012782;28;20493;-63
2022/12/11 05:37:46;;;;;;;2.60;2.10;;;1.10;98.00;;;;;;5012762;28;20458;-64
2022/12/11 05:40:14;;;;;;;4.70;2.20;;;1.10;98.00;;;;;;5012897;28;20818;-63
2022/12/11 05:42:42;;;;;;;6.50;2.20;;;1.20;98.00;;;;;;5012696;28;20973;-64
2022/12/11 05:45:12;;;;;;;1.87;1.83;;;1.10;98.00;;;;;;5012528;28;20466;-64
2022/12/11 05:47:39;;;;;;;2.10;1.90;;;1.10;98.00;;;;;;5012203;28;20458;-64
2022/12/11 05:50:08;;;;;;;4.13;2.37;;;1.00;98.00;;;;;;5027410;28;21004;-64
2022/12/11 05:52:35;;;;;;;2.20;2.00;;;1.00;98.00;;;;;;5012214;28;20470;-64
2022/12/11 05:55:02;;;;;;;2.70;2.00;;;1.00;98.00;;;;;;5012585;28;20463;-63
2022/12/11 05:57:31;;;;;;;2.17;1.77;;;1.00;98.00;;;;;;5012143;28;20462;-64
2022/12/11 05:59:58;;;;;;;1.70;1.50;;;1.10;98.00;;;;;;5012233;28;20505;-63
2022/12/11 06:02:25;;;;;;;2.80;2.20;;;1.30;98.00;;;;;;5012212;28;20918;-63
2022/12/11 06:04:53;;;;;;;4.03;2.33;;;1.30;98.00;;;;;;5012186;28;20462;-64
2022/12/11 06:07:20;;;;;;;6.33;3.07;;;1.40;98.00;;;;;;5027221;28;20463;-64
2022/12/11 06:09:47;;;;;;;2.80;2.13;;;1.40;98.00;;;;;;5012233;28;20549;-63
2022/12/11 06:12:14;;;;;;;3.03;2.83;;;1.40;98.00;;;;;;5012129;28;21137;-63
2022/12/11 06:14:43;;;;;;;3.40;2.43;;;1.40;98.00;;;;;;5012058;28;20461;-64
2022/12/11 06:17:11;;;;;;;6.13;3.10;;;1.40;98.00;;;;;;5012071;28;20469;-64
2022/12/11 06:19:38;;;;;;;4.90;2.53;;;1.40;98.00;;;;;;5027265;28;20516;-63
2022/12/11 06:22:05;;;;;;;6.97;3.03;;;1.40;98.00;;;;;;5011578;28;20463;-63
2022/12/11 06:24:35;;;;;;;3.13;2.60;;;1.20;98.00;;;;;;5027273;28;20973;-63
2022/12/11 06:27:03;;;;;;;2.70;2.10;;;1.10;98.00;;;;;;5015184;28;20458;-63
2022/12/11 06:29:30;;;;;;;1.30;1.30;;;1.00;98.00;;;;;;5015909;28;20490;-63
2022/12/11 06:31:58;;;;;;;2.80;2.50;;;1.00;98.00;;;;;;5016061;28;20470;-63
2022/12/11 06:34:25;;;;;;;3.73;1.80;;;0.90;98.00;;;;;;5016214;28;20455;-63
2022/12/11 06:36:53;;;;;;;3.27;2.23;;;0.90;98.00;;;;;;5015882;28;20965;-63
2022/12/11 06:39:20;;;;;;;2.83;2.70;;;1.00;98.00;;;;;;5015937;28;20456;-63
2022/12/11 06:41:47;;;;;;;4.10;2.07;;;1.10;98.00;;;;;;5015691;28;20509;-64
2022/12/11 06:44:14;;;;;;;2.60;2.17;;;0.90;98.00;;;;;;5015356;28;20558;-64
2022/12/11 06:46:41;;;;;;;2.73;2.30;;;0.90;98.00;;;;;;5015631;28;20798;-64
2022/12/11 06:49:10;;;;;;;2.30;1.93;;;0.80;98.00;;;;;;5015507;28;20481;-63
2022/12/11 06:51:37;;;;;;;3.47;2.10;;;0.70;98.00;;;;;;5015490;28;20458;-64
2022/12/11 06:54:04;;;;;;;5.90;3.80;;;0.50;98.00;;;;;;5030824;28;20457;-63
2022/12/11 06:56:34;;;;;;;2.37;2.10;;;0.40;98.00;;;;;;5015450;28;20454;-66
2022/12/11 06:59:02;;;;;;;2.13;1.90;;;0.30;98.00;;;;;;5015433;28;20510;-65
2022/12/11 07:01:30;;;;;;;5.20;2.80;;;0.10;98.00;;;;;;5015458;28;20516;-66
2022/12/11 07:03:58;;;;;;;2.37;1.80;;;0.00;98.00;;;;;;5015515;28;20459;-65
2022/12/11 07:06:28;;;;;;;5.33;2.60;;;0.00;98.00;;;;;;5015099;28;20479;-66
2022/12/11 07:08:55;;;;;;;6.03;2.70;;;0.40;98.00;;;;;;5015151;28;20486;-66
2022/12/11 07:11:23;;;;;;;3.73;2.87;;;0.50;98.00;;;;;;5015238;28;20844;-63
2022/12/11 07:13:51;;;;;;;4.97;2.90;;;0.70;98.00;;;;;;5015273;28;20851;-63
2022/12/11 07:16:20;;;;;;;2.00;1.90;;;0.70;98.00;;;;;;5015194;28;20894;-65
2022/12/11 07:18:49;;;;;;;3.00;1.93;;;0.50;98.00;;;;;;5015237;28;20467;-65
2022/12/11 07:21:20;;;;;;;2.40;2.00;;;0.40;98.00;;;;;;5015050;28;20465;-65
2022/12/11 07:23:50;;;;;;;3.00;1.80;;;0.50;98.00;;;;;;5029883;28;20806;-65
2022/12/11 07:26:19;;;;;;;2.07;1.80;;;0.40;98.00;;;;;;5014920;28;20965;-65
2022/12/11 07:28:46;;;;;;;2.37;1.50;;;0.60;98.00;;;;;;5015249;28;20956;-66
2022/12/11 07:31:15;;;;;;;1.63;1.60;;;0.60;98.00;;;;;;5014751;28;20458;-65
2022/12/11 07:33:43;;;;;;;3.57;2.77;;;0.60;98.00;;;;;;5014825;28;20462;-66
2022/12/11 07:36:12;;;;;;;3.30;2.37;;;0.50;98.00;;;;;;5014710;28;20466;-65
2022/12/11 07:38:39;;;;;;;2.90;1.80;;;0.60;98.00;;;;;;5013943;28;20462;-65
2022/12/11 07:41:11;;;;;;;2.10;1.97;;;0.70;98.00;;;;;;5029707;28;20537;-66
2022/12/11 07:43:38;;;;;;;4.77;2.00;;;0.70;98.00;;;;;;5014536;28;20469;-65
2022/12/11 07:46:07;;;;;;;1.83;1.70;;;0.80;98.00;;;;;;5014715;28;20471;-65
2022/12/11 07:48:36;;;;;;;3.40;2.53;;;0.80;98.00;;;;;;5014269;28;21020;-65
2022/12/11 07:51:10;;;;;;;4.40;2.57;;;0.90;98.00;;;;;;5014602;28;20458;-65
2022/12/11 07:53:37;;;;;;;3.33;2.97;;;0.90;98.00;;;;;;5029539;28;20514;-65
2022/12/11 07:56:07;;;;;;;9.47;1.90;;;0.90;98.00;;;;;;5014411;28;20586;-65
2022/12/11 07:58:34;;;;;;;3.63;1.90;;;0.90;98.00;;;;;;5014290;28;20790;-65
2022/12/11 08:01:05;;;;;;;6.50;4.13;;;0.90;98.00;;;;;;5014413;28;20451;-65
2022/12/11 08:03:33;;;;;;;2.30;1.93;;;0.90;98.00;;;;;;5014191;28;20450;-65
2022/12/11 08:06:00;;;;;;;2.67;1.93;;;1.10;98.00;;;;;;5014591;28;20533;-65
2022/12/11 08:08:27;;;;;;;3.20;2.63;;;1.20;98.00;;;;;;5013673;28;20462;-65
2022/12/11 08:10:55;;;;;;;3.80;2.60;;;1.40;98.00;;;;;;5013957;28;20482;-65
2022/12/11 08:13:24;;;;;;;2.20;2.07;;;1.50;98.00;;;;;;4996826;28;20462;-65
2022/12/11 08:15:51;;;;;;;3.70;2.67;;;1.60;98.00;;;;;;5014258;28;20466;-66
2022/12/11 08:18:18;;;;;;;5.87;3.00;;;1.50;98.00;;;;;;5014155;28;20993;-65
2022/12/11 08:20:47;;;;;;;3.00;2.00;;;1.50;98.00;;;;;;5014206;28;20462;-66
2022/12/11 08:23:14;;;;;;;2.33;2.20;;;1.40;98.00;;;;;;5013755;28;20463;-66
2022/12/11 08:25:41;;;;;;;2.10;1.90;;;1.30;98.00;;;;;;5013979;28;20486;-66
2022/12/11 08:28:08;;;;;;;3.63;2.50;;;1.30;98.00;;;;;;5013649;28;20466;-66
2022/12/11 08:30:38;;;;;;;6.17;2.20;;;1.40;98.00;;;;;;5013804;28;20511;-65
2022/12/11 08:33:05;;;;;;;2.70;2.40;;;1.40;98.00;;;;;;5013597;28;20455;-65
2022/12/11 08:35:33;;;;;;;5.77;2.97;;;1.50;98.00;;;;;;5013559;28;20905;-65
2022/12/11 08:38:00;;;;;;;2.57;2.20;;;1.60;98.00;;;;;;5013666;28;20467;-65
2022/12/11 08:40:27;;;;;;;5.50;2.30;;;1.40;98.00;;;;;;5013464;28;20801;-66
2022/12/11 08:42:54;;;;;;;3.13;2.20;;;1.40;98.00;;;;;;5013335;28;20457;-62
2022/12/11 08:45:21;;;;;;;4.63;2.50;;;1.40;98.00;;;;;;5012814;28;20458;-62
2022/12/11 08:47:49;;;;;;;3.73;2.40;;;1.40;98.00;;;;;;5013407;28;20972;-62
2022/12/11 08:50:18;;;;;;;2.80;2.50;;;1.40;98.00;;;;;;5012368;28;20493;-62
2022/12/11 08:52:45;;;;;;;2.47;2.10;;;1.50;98.00;;;;;;5013300;28;20471;-62
2022/12/11 08:55:12;;;;;;;3.53;2.40;;;1.50;98.00;;;;;;5013406;28;20462;-62
2022/12/11 08:57:39;;;;;;;4.37;3.10;;;1.70;98.00;;;;;;5013075;28;20545;-62
2022/12/11 09:00:09;;;;;;;7.53;3.67;;;1.70;98.00;;;;;;5013442;28;20507;-62
2022/12/11 09:02:36;;;;;;;3.43;2.17;;;1.60;98.00;;;;;;5013239;28;21003;-62
2022/12/11 09:05:08;;;;;;;4.37;3.10;;;1.70;98.00;;;;;;5013397;28;20462;-62
2022/12/11 09:07:35;;;;;;;3.23;3.10;;;1.70;98.00;;;;;;5012802;28;20569;-62
2022/12/11 09:10:02;;;;;;;2.37;2.17;;;1.80;98.00;;;;;;5013079;28;20501;-62
2022/12/11 09:12:30;;;;;;;4.00;2.43;;;1.90;98.00;;;;;;5012896;28;20471;-62
2022/12/11 09:14:57;;;;;;;3.90;2.50;;;1.90;98.00;;;;;;5013183;28;20862;-62
2022/12/11 09:17:25;;;;;;;2.37;2.20;;;2.00;98.00;;;;;;5013019;28;20474;-62
2022/12/11 09:19:52;;;;;;;2.23;2.10;;;2.00;98.00;;;;;;5013059;28;20458;-62
2022/12/11 09:22:21;;;;;;;3.43;2.07;;;2.00;98.00;;;;;;5012597;28;20456;-62
2022/12/11 09:24:48;;;;;;;3.80;2.23;;;2.00;98.00;;;;;;5012837;28;20463;-62
2022/12/11 09:27:15;;;;;;;6.53;3.23;;;2.00;98.00;;;;;;4995227;28;20459;-62
2022/12/11 09:29:43;;;;;;;5.90;3.10;;;1.90;98.00;;;;;;5012473;28;20486;-62
2022/12/11 09:32:10;;;;;;;4.90;3.77;;;2.00;98.00;;;;;;5012543;28;20462;-62
2022/12/11 09:34:37;;;;;;;3.57;2.37;;;2.10;98.00;;;;;;5012340;28;20960;-62
2022/12/11 09:37:16;;;;;;;4.67;3.40;;;2.00;98.00;;;;;;5018358;28;20459;-63
2022/12/11 09:39:44;;;;;;;10.07;3.90;;;2.00;98.00;;;;;;5031811;28;20462;-62
2022/12/11 09:42:18;;;;;;;3.83;2.27;;;2.10;98.00;;;;;;5024496;28;20482;-62
2022/12/11 09:44:49;;;;;;;6.50;3.40;;;2.20;98.00;;;;;;5008302;28;20537;-62
2022/12/11 09:47:36;;;;;;;2.37;2.17;;;2.20;98.00;;;;;;5009209;28;20472;-62
2022/12/11 09:50:10;;;;;;;2.23;1.80;;;2.10;98.00;;;;;;5007243;28;20553;-62
2022/12/11 09:52:48;;;;;;;2.83;2.67;;;2.20;98.00;;;;;;5009965;28;20470;-62
2022/12/11 09:55:19;;;;;;;7.20;4.10;;;2.30;98.00;;;;;;5009555;28;20462;-63
2022/12/11 09:57:54;;;;;;;3.30;2.87;;;2.20;98.00;;;;;;5010404;28;20541;-63
2022/12/11 10:00:28;;;;;;;7.53;4.60;;;2.20;98.00;;;;;;5008894;28;20548;-63
2022/12/11 10:03:30;;;;;;;4.37;3.40;;;2.10;98.00;;;;;;4992201;28;20514;-62
2022/12/11 10:06:06;;;;;;;4.13;3.50;;;2.20;98.00;;;;;;5008760;28;20462;-62
2022/12/11 10:08:39;;;;;;;6.83;2.93;;;2.20;98.00;;;;;;5008787;28;20490;-62
2022/12/11 10:11:32;;;;;;;8.57;3.40;;;2.10;98.00;;;;;;5009063;28;20502;-62
2022/12/11 10:14:06;;;;;;;2.70;2.30;;;2.10;98.00;;;;;;5005841;28;20524;-63
2022/12/11 10:16:39;;;;;;;3.53;3.10;;;1.90;98.00;;;;;;5008661;28;20458;-62
2022/12/11 10:19:10;;;;;;;5.00;3.30;;;1.60;98.00;;;;;;5008962;28;20470;-62
2022/12/11 10:21:51;;;;;;;3.60;2.33;;;1.60;98.00;;;;;;4991697;28;20568;-62
2022/12/11 10:24:22;;;;;;;2.60;2.40;;;1.80;98.00;;;;;;5008506;28;20946;-61
2022/12/11 10:26:57;;;;;;;2.83;2.73;;;2.00;98.00;;;;;;5008563;28;20489;-62
2022/12/11 10:29:24;;;;;;;2.00;1.90;;;2.10;98.00;;;;;;5008538;28;20549;-62
2022/12/11 10:31:56;;;;;;;33.70;1.90;;;2.10;98.00;;;;;;5008526;28;20847;-61
2022/12/11 10:34:34;;;;;;;3.13;2.00;;;1.60;98.00;;;;;;5008602;28;20815;-62
2022/12/11 10:37:02;;;;;;;5.13;2.90;;;1.70;98.00;;;;;;5008583;28;20477;-62
2022/12/11 10:39:29;;;;;;;2.47;1.60;;;1.70;98.00;;;;;;5008526;28;21270;-61
2022/12/11 10:41:59;;;;;;;2.67;1.90;;;1.90;98.00;;;;;;5008564;28;20455;-61
2022/12/11 10:44:28;;;;;;;4.60;2.20;;;2.10;98.00;;;;;;5008520;28;20491;-62
2022/12/11 10:47:04;;;;;;;2.43;2.00;;;1.90;98.00;;;;;;5008497;28;20514;-61
2022/12/11 10:49:33;;;;;;;3.33;2.17;;;1.90;98.00;;;;;;5005761;28;20499;-62
2022/12/11 10:52:03;;;;;;;7.50;3.73;;;2.00;98.00;;;;;;5008367;28;20513;-62
2022/12/11 10:54:33;;;;;;;3.23;2.57;;;2.10;98.00;;;;;;5008138;28;20459;-63
2022/12/11 10:57:03;;;;;;;2.27;2.13;;;2.10;98.00;;;;;;5008593;28;20970;-62
2022/12/11 10:59:36;;;;;;;2.07;1.87;;;2.30;98.00;;;;;;4990966;28;20829;-63
2022/12/11 11:02:07;;;;;;;3.63;2.70;;;2.40;98.00;;;;;;5008518;28;21008;-62
2022/12/11 11:04:36;;;;;;;7.60;3.10;;;2.50;98.00;;;;;;5008081;28;20462;-62
2022/12/11 11:07:12;;;;;;;2.80;1.80;;;2.30;98.00;;;;;;5008458;28;20486;-62
2022/12/11 11:09:39;;;;;;;2.90;1.63;;;2.40;98.00;;;;;;5007879;28;20565;-62
2022/12/11 11:12:21;;;;;;;2.90;2.20;;;2.40;98.00;;;;;;5008182;28;20835;-62
2022/12/11 11:15:04;;;;;;;3.63;2.30;;;2.40;98.00;;;;;;5011785;28;20841;-62
2022/12/11 11:17:33;;;;;;;4.53;2.63;;;2.40;98.00;;;;;;5011456;28;20463;-61
2022/12/11 11:20:12;;;;;;;2.37;2.20;;;2.40;98.00;;;;;;5011979;28;20808;-61
2022/12/11 11:22:43;;;;;;;2.63;2.30;;;2.20;98.00;;;;;;5011329;28;20480;-62
2022/12/11 11:25:18;;;;;;;3.70;2.20;;;1.90;98.00;;;;;;4994906;28;20486;-61
2022/12/11 11:27:51;;;;;;;3.13;2.30;;;2.10;98.00;;;;;;5012131;28;20505;-61
2022/12/11 11:30:21;;;;;;;3.93;2.30;;;2.10;98.00;;;;;;5012236;28;20521;-61
2022/12/11 11:32:50;;;;;;;7.50;2.00;;;2.10;98.00;;;;;;5012305;28;20515;-63
2022/12/11 11:35:21;;;;;;;3.90;2.30;;;1.90;98.00;;;;;;5012338;28;20973;-63
2022/12/11 11:37:58;;;;;;;2.50;2.37;;;2.00;98.00;;;;;;5012049;28;20478;-62
2022/12/11 11:40:29;;;;;;;3.20;1.50;;;1.90;98.00;;;;;;5011810;28;20471;-64
2022/12/11 11:43:07;;;;;;;2.40;2.17;;;2.00;98.00;;;;;;5011794;28;20459;-62
2022/12/11 11:45:39;;;;;;;2.27;2.07;;;2.10;98.00;;;;;;5011742;28;20456;-61
2022/12/11 11:48:18;;;;;;;1.77;1.73;;;2.00;98.00;;;;;;5011846;28;20463;-62
2022/12/11 11:50:49;;;;;;;3.90;2.77;;;3.60;98.00;;;;;;5009706;28;20492;-66
2022/12/11 11:53:22;;;;;;;5.93;2.93;;;5.10;98.00;;;;;;5011724;28;20456;-62
2022/12/11 11:55:58;;;;;;;4.13;2.23;;;5.30;98.00;;;;;;5011868;28;20458;-62
2022/12/11 11:58:35;;;;;;;5.27;3.30;;;4.60;98.00;;;;;;5011850;28;20455;-61
2022/12/11 12:01:02;;;;;;;3.70;2.90;;;4.20;98.00;;;;;;5011580;28;21025;-62
2022/12/11 12:03:30;;;;;;;5.37;2.97;;;3.80;98.00;;;;;;5011439;28;20447;-62
2022/12/11 12:06:02;;;;;;;6.77;3.80;;;3.40;98.00;;;;;;4994008;28;20462;-62
2022/12/11 12:08:44;;;;;;;5.43;3.30;;;3.10;98.00;;;;;;5012251;28;20524;-62
2022/12/11 12:11:24;;;;;;;2.43;2.13;;;3.20;98.00;;;;;;5014060;28;20496;-62
2022/12/11 12:14:06;;;;;;;6.70;3.80;;;3.10;98.00;;;;;;5014080;28;20455;-62
2022/12/11 12:16:40;;;;;;;3.40;2.07;;;2.90;98.00;;;;;;5013887;28;20510;-62
2022/12/11 12:19:20;;;;;;;3.53;2.80;;;2.90;98.00;;;;;;5014139;28;20459;-62
2022/12/11 12:21:51;;;;;;;3.67;2.63;;;2.90;98.00;;;;;;5014011;28;20535;-62
2022/12/11 12:24:30;;;;;;;5.77;2.70;;;2.90;98.00;;;;;;5013833;28;21112;-62
2022/12/11 12:27:02;;;;;;;2.23;2.13;;;2.90;98.00;;;;;;5013752;28;20459;-62
2022/12/11 12:29:44;;;;;;;4.97;2.30;;;3.00;98.00;;;;;;4996796;28;20474;-62
2022/12/11 12:32:21;;;;;;;3.10;2.90;;;2.80;98.00;;;;;;5013730;28;21141;-62
2022/12/11 12:35:01;;;;;;;6.67;2.00;;;2.80;98.00;;;;;;5013846;28;20463;-62
2022/12/11 12:37:44;;;;;;;4.90;2.90;;;2.70;98.00;;;;;;5013852;28;20870;-62
2022/12/11 12:40:20;;;;;;;5.50;2.37;;;2.70;98.00;;;;;;5013549;28;20455;-62
2022/12/11 12:42:56;;;;;;;5.80;2.50;;;2.70;98.00;;;;;;5013547;28;20463;-61
2022/12/11 12:45:30;;;;;;;3.47;2.10;;;2.70;98.00;;;;;;5019807;28;20451;-62
2022/12/11 12:47:57;;;;;;;2.10;1.97;;;2.50;98.00;;;;;;5032603;28;20831;-61
2022/12/11 12:50:29;;;;;;;5.73;2.80;;;2.60;98.00;;;;;;5032482;28;20490;-61
2022/12/11 12:52:58;;;;;;;3.30;2.40;;;2.50;98.00;;;;;;5032703;28;20458;-61
2022/12/11 12:55:28;;;;;;;5.20;3.00;;;2.50;98.00;;;;;;5014875;28;20465;-61
2022/12/11 12:57:57;;;;;;;2.27;1.90;;;2.60;98.00;;;;;;5032419;28;20463;-61
2022/12/11 13:00:32;;;;;;;2.87;1.83;;;2.70;98.00;;;;;;5032268;28;20528;-61
2022/12/11 13:03:01;;;;;;;3.30;2.37;;;2.70;98.00;;;;;;5031936;28;20465;-62
2022/12/11 13:05:32;;;;;;;7.30;3.80;;;2.80;98.00;;;;;;5032084;28;20829;-61
2022/12/11 13:08:01;;;;;;;5.13;2.70;;;2.80;98.00;;;;;;5031835;28;20901;-62
2022/12/11 13:10:31;;;;;;;5.67;3.33;;;2.70;98.00;;;;;;5032054;28;20487;-62
2022/12/11 13:13:01;;;;;;;4.60;2.57;;;2.60;98.00;;;;;;5031920;28;20501;-62
2022/12/11 13:15:37;;;;;;;2.57;2.37;;;2.60;98.00;;;;;;5014861;28;20881;-62
2022/12/11 13:18:23;;;;;;;3.87;2.33;;;2.60;98.00;;;;;;5031919;28;20545;-61
2022/12/11 13:20:52;;;;;;;3.20;2.70;;;2.70;98.00;;;;;;5031301;28;20455;-61
2022/12/11 13:23:27;;;;;;;3.30;2.90;;;2.70;98.00;;;;;;5031852;28;20461;-61
2022/12/11 13:25:57;;;;;;;7.23;2.83;;;2.70;98.00;;;;;;5031944;28;20545;-61
2022/12/11 13:28:33;;;;;;;5.37;2.80;;;2.70;98.00;;;;;;5031853;28;20969;-61